Tiempo atmosférico en la estación meteorológica de Bilbao Aeropuerto, Bizkaia (42 m.)



Fecha
DESCASC
Temp. máxima en grados centígrados (hora)
DESCASC
Temp. mínima en grados centígrados (hora)
DESCASC
Temp. media en grados centígrados
DESCASC
Racha de viento máxima en m/sg (hora)
DESCASC
Velocidad máxima media en intervalos de 10 minutos(hora)
DESCASC
Precipitaciones diarias en mm
DESCASC
Precipitaciones de 00:00 a 06:00 en mm
DESCASC
Precipitaciones de 06:00 a 12:00 en mm
DESCASC
Precipitaciones de 12:00 a 18:00 en mm
DESCASC
Precipitaciones de 18:00 a 24:00 en mm
DESCASC
23-06-2019 24.6 (07:30) 18.1 (23:40) 21.4 8.33 (07:10) 4.72 (14:30) 0 0 0 0 0
22-06-2019 29.8 (15:30) 10.1 (05:20) 19.9 10.28 (15:00) 5.56 (11:20) 0 0 0 0 0
21-06-2019 20.4 (16:20) 12.8 (23:59) 16.6 7.78 (15:50) 4.72 (15:50) 2.6 1.3 1.3 0 0
20-06-2019 19.8 (18:00) 15.8 (00:00) 17.8 7.78 (18:50) 4.72 (18:50) 0.6 0 0.3 0.3 0
19-06-2019 24.6 (10:10) 14.2 (00:00) 19.4 10.83 (11:30) 8.06 (11:50) 0 0 0 0 0
18-06-2019 35.1 (15:10) 14.7 (00:00) 24.9 15.28 (16:00) 11.39 (16:20) 0 0 0 0 0
17-06-2019 25.8 (12:30) 14.4 (00:00) 20.1 9.17 (17:00) 6.94 (17:20) 0 0 0 0 0
16-06-2019 25.6 (15:20) 9.4 (00:00) 17.5 9.17 (20:10) 7.5 (20:10) 0 0 0 0 0
15-06-2019 21.7 (16:30) 10.5 (00:00) 16.1 8.89 (16:10) 5.28 (17:40) 0 0 0 0 0
14-06-2019 16.6 (13:00) 10.2 (00:00) 13.4 9.17 (12:10) 3.89 (13:30) 0 0 0 0 0
13-06-2019 19.3 (14:30) 8.8 (00:00) 14 9.72 (14:10) 5.83 (16:10) 0 0 0 0 0
12-06-2019 18.7 (14:10) 11.5 (00:00) 15.1 11.67 (17:40) 7.78 (16:50) 0 0 0 0 0
11-06-2019 16.9 (18:20) 10.8 (00:00) 13.8 16.11 (16:40) 11.39 (16:40) 8.3 4.5 3 0.8 0
10-06-2019 17.8 (14:20) 9.3 (00:00) 13.5 6.67 (14:50) 5 (15:20) 2.2 0 1.5 0 0.7
09-06-2019 16.7 (13:40) 13 (00:00) 14.9 10.28 (15:20) 7.5 (15:30) 0.9 0 0 0 0.9
08-06-2019 20.4 (15:40) 8.8 (00:00) 14.6 11.39 (14:40) 6.39 (14:30) 0 0 0 0 0
07-06-2019 23 (00:30) 13.3 (00:00) 18.2 18.89 (00:40) 12.22 (00:40) 0 0 0 0 0
06-06-2019 27 (21:20) 10 (00:00) 18.5 17.5 (22:50) 10 (22:50) 0.2 0.2 0 0 0
05-06-2019 17.9 (16:40) 11.9 (00:00) 14.9 15 (14:40) 10.83 (14:50) 7.8 3.3 4.5 0 0
04-06-2019 22.1 (14:00) 13.9 (00:00) 18 13.89 (17:40) 9.44 (17:40) 1.4 0 0 0 1.4
03-06-2019 24 (14:10) 13.7 (00:00) 18.8 8.89 (17:20) 6.39 (17:20) 0 0 0 0 0
02-06-2019 29.5 (12:30) 14.6 (00:00) 22.1 9.72 (15:30) 6.94 (14:20) 0 0 0 0 0
01-06-2019 34.2 (16:00) 15.1 (00:00) 24.7 7.78 (18:00) 6.11 (18:00) 0 0 0 0 0
31-05-2019 30.1 (16:20) 12.3 (00:00) 21.2 11.39 (16:40) 5.83 (17:20) 0 0 0 0 0
30-05-2019 26.2 (15:50) 9 (00:00) 17.6 10.83 (21:00) 4.72 (17:50) 0 0 0 0 0
29-05-2019 20.1 (16:30) 12.1 (00:00) 16.1 7.78 (00:30) 4.72 (16:50) 3.1 2.9 0.2 0 0
28-05-2019 17.2 (16:50) 11.8 (00:00) 14.5 13.33 (13:20) 10 (17:30) 1.2 0.2 0.8 0.2 0

Gráficas

Temp. máximas Temp. mínimas Temp. medias Precipitaciones Rachas de viento máximas Velocidades máximas media en intervalos de 10 minutos

Datos horarios

Fecha y hora oficial Temperatura (ºC) Velocidad del viento (km/h) Dirección del viento Racha (km/h) Dirección de racha Precipitación (mm) Presión (hPa) Tendencia (hPa) Humedad (%)
2019-06-26 23:00:00 20.3 13 Norte 30 Norte 0 1012.9 5.7 82
2019-06-26 22:00:00 21 11 Norte 32 Noroeste 0 1011.5 5.2 83
2019-06-26 21:00:00 22.8 20 Noroeste 50 Noroeste 0 1010 3.6 78
2019-06-26 20:00:00 35.2 12 Este 39 Este 0 1007.2 0.4 35
2019-06-26 19:00:00 36.7 17 Sudeste 41 Sudeste 0 1006.3 -0.8 33
2019-06-26 18:00:00 38.7 19 Este 32 Este 0 1006.4 -1.1 28
2019-06-26 17:00:00 39 20 Este 39 Este 0 1006.8 -1.4 25
2019-06-26 16:00:00 38.5 18 Sur 41 Sudeste 0 1007.1 -1.6 23
2019-06-26 15:00:00 37.7 23 Sudeste 39 Sudeste 0 1007.5 -1.6 24
2019-06-26 14:00:00 36.5 21 Sudeste 39 Sudeste 0 1008.2 -2 27
2019-06-26 13:00:00 34.8 18 Sur 41 Sudeste 0 1008.7 -2.1 30
2019-06-26 12:00:00 31.1 5 Nordeste 17 Nordeste 0 1009.1 -2 47
2019-06-26 11:00:00 26.2 9 Este 17 Este 0 1010.2 -1.1 64
2019-06-26 10:00:00 22.7 6 Sudeste 21 Sudeste 0 1010.8 -0.9 76
2019-06-26 09:00:00 20.4 8 Sudeste 13 Este 0 1011.1 -0.7 84
2019-06-26 08:00:00 18.7 8 Sudeste 13 Sudeste 0 1011.3 -0.5 92
2019-06-26 07:00:00 18 4 Sudeste 8 Sur 0 1011.7 -0.5 95
2019-06-26 06:00:00 18.6 6 Noroeste 9 Noroeste 0 1011.8 -0.4 92
2019-06-26 05:00:00 18.5 5 Noroeste 13 Oeste 0 1011.8 -0.9 93
2019-06-26 04:00:00 18.7 7 Oeste 13 Noroeste 0 1012.2 -1.2 91
2019-06-26 03:00:00 18.7 0 Calma 9 Noroeste 0 1012.2 -1.5 90
2019-06-26 02:00:00 18.8 6 Noroeste 11 Noroeste 0 1012.7 -0.7 91
2019-06-26 01:00:00 19 6 Oeste 11 Oeste 0 1013.4 0 90
2019-06-26 00:00:00 19.1 9 Noroeste 13 Norte 0 1013.7 0.7 89
2019-06-25 23:00:00 19 6 Noroeste 13 Noroeste 0 1013.4 0.5 90
2019-06-25 22:00:00 19 11 Noroeste 17 Noroeste 0 1013.4 0.9 90
2019-06-25 21:00:00 19.1 10 Noroeste 21 Noroeste 0 1013 0.8 90
2019-06-25 20:00:00 19.4 14 Noroeste 30 Noroeste 0 1012.9 0.8 88
2019-06-25 19:00:00 21 21 Oeste 35 Oeste 0 1012.5 0.3 81
2019-06-25 18:00:00 22.4 23 Oeste 33 Noroeste 0 1012.2 -0.3 75
2019-06-25 17:00:00 24.1 20 Noroeste 30 Noroeste 0 1012.1 -0.4 70
2019-06-25 16:00:00 23.8 7 Norte 26 Norte 0 1012.2 -0.4 72
2019-06-25 15:00:00 23 16 Oeste 30 Noroeste 0 1012.5 0 75
2019-06-25 14:00:00 22.9 14 Oeste 24 Oeste 0 1012.5 0.1 76
2019-06-25 13:00:00 22.9 13 Noroeste 28 Oeste 0 1012.6 0 75
2019-06-25 12:00:00 22.9 14 Oeste 22 Oeste 0 1012.5 -0.1 72
2019-06-25 11:00:00 22.5 4 Noroeste 15 Noroeste 0 1012.4 0.2 72
2019-06-25 10:00:00 20.1 5 Oeste 11 Noroeste 0 1012.6 0.6 78
2019-06-25 09:00:00 18.8 0 Calma 11 Este 0 1012.6 0.9 83
2019-06-25 08:00:00 16.3 8 Este 17 Este 0 1012.2 0.7 93
2019-06-25 07:00:00 15.1 6 Este 9 Este 0 1012 0.2 96
2019-06-25 06:00:00 15 9 Este 11 Este 0 1011.7 -0.2 96
2019-06-25 05:00:00 15.8 5 Este 11 Sudeste 0 1011.5 -0.7 95
2019-06-25 04:00:00 16 0 Calma 9 Este 0 1011.8 -0.5 95
2019-06-25 03:00:00 16.3 0 Calma 8 Este 0 1011.9 -0.4 95
2019-06-25 02:00:00 16.4 4 Este 9 Este 0 1012.2 0.1 94
2019-06-25 01:00:00 16.5 9 Este 13 Este 0 1012.3 0.7 94
2019-06-25 00:00:00 17.1 6 Este 13 Este 0 1012.3 1.4 92
2019-06-24 23:00:00 18.2 2 Sudoeste 8 Oeste 0 1012.1 1.5 88
2019-06-24 22:00:00 18.6 3 Noroeste 17 Norte 0 1011.6 1.1 86
2019-06-24 21:00:00 19.2 12 Noroeste 30 Noroeste 0 1010.9 0.6 84
2019-06-24 20:00:00 19.6 23 Noroeste 35 Norte 0 1010.6 1.1 83
2019-06-24 19:00:00 20.3 23 Noroeste 37 Noroeste 0 1010.5 1.8 79
2019-06-24 18:00:00 19.9 23 Noroeste 41 Noroeste 0 1010.3 2.3 82
2019-06-24 17:00:00 19.9 21 Noroeste 33 Noroeste 0 1009.5 1.2 85
2019-06-24 16:00:00 20.5 21 Noroeste 30 Noroeste 0 1008.7 0.2 80
2019-06-24 15:00:00 21.4 13 Noroeste 28 Oeste 0 1008 -0.6 78
2019-06-24 14:00:00 22.7 8 Oeste 17 Noroeste 0 1008.3 -0.9 75
2019-06-24 13:00:00 22.1 6 Oeste 13 Oeste 0 1008.5 -0.4 75
2019-06-24 12:00:00 21.4 5 Noroeste 17 Noroeste 0 1008.6 -0.2 78
2019-06-24 11:00:00 20.4 4 Noroeste 11 Noroeste 0 1009.2 0.1 79
2019-06-24 10:00:00 19.6 3 Este 11 Este 0 1008.9 -0.2 81
2019-06-24 09:00:00 18.5 6 Sudeste 11 Este 0 1008.8 -0.3 88
2019-06-24 08:00:00 17.6 4 Este 13 Sudeste 0 1009.1 -0.4 91
2019-06-24 07:00:00 17 4 Sudeste 11 Sudeste 0 1009.1 -0.3 93
2019-06-24 06:00:00 17.3 0 Calma -- -- 0 1009.1 -0.4 94
2019-06-24 05:00:00 17.5 0 Calma 13 Oeste 0 1009.5 0.2 94
2019-06-24 04:00:00 17.6 10 Noroeste 17 Noroeste 0 1009.4 0.2 94
2019-06-24 03:00:00 17.6 10 Oeste 15 Oeste 0 1009.5 0.2 89
2019-06-24 02:00:00 17.5 6 Noroeste 9 Noroeste 0 1009.3 -0.4 89
2019-06-24 01:00:00 18.1 0 Calma 9 Este 0 1009.2 -0.1 85
2019-06-24 00:00:00 18.3 0 Calma 5 Oeste 0 1009.3 -0.1 83
2019-06-23 23:00:00 18.3 4 Noroeste 13 Noroeste 0 1009.7 0.8 83
2019-06-23 22:00:00 19.1 7 Oeste 15 Noroeste 0 1009.3 0.8 79
2019-06-23 21:00:00 20.1 12 Noroeste 15 Oeste 0 1009.4 0.9 76
2019-06-23 20:00:00 21.4 10 Noroeste 18 Norte 0 1008.9 0.3 71
2019-06-23 19:00:00 22.8 12 Norte 21 Norte 0 1008.5 -0.2 65
2019-06-23 18:00:00 23.4 6 Norte 17 Norte 0 1008.5 0.3 60
2019-06-23 17:00:00 22.2 11 Noroeste 22 Norte 0 1008.6 1.2 69
2019-06-23 16:00:00 21.3 12 Noroeste 24 Noroeste 0 1008.7 1.4 71
2019-06-23 15:00:00 21.7 17 Noroeste 26 Noroeste 0 1008.2 1.1 62
2019-06-23 14:00:00 24.2 13 Noroeste 18 Noroeste 0 1007.4 0.2 58
2019-06-23 13:00:00 23.9 3 Oeste 8 Oeste 0 1007.3 -0.1 62
2019-06-23 12:00:00 23.9 2 Este 17 Norte 0 1007.1 -0.1 63
2019-06-23 11:00:00 23 4 Sudeste 11 Este 0 1007.2 0.8 60
2019-06-23 10:00:00 21.5 7 Este 13 Sudeste 0 1007.4 2.7 70
2019-06-23 09:00:00 20.1 3 Este 17 Oeste 0 1007.2 2.8 74
2019-06-23 08:00:00 20.3 11 Oeste 30 Este 0 1006.4 2.6 76
2019-06-23 07:00:00 23.3 14 Este 28 Este 0 1004.7 0.6 55
2019-06-23 06:00:00 22.5 12 Sudeste 18 Sudeste 0 1004.4 -0.3 60
2019-06-23 05:00:00 19.9 15 Este 21 Este 0 1003.8 -1.6 82
2019-06-23 04:00:00 19.3 0 Calma 9 Sudeste 0 1004.1 -1.9 89
2019-06-23 03:00:00 20.1 5 Sur 8 Sur 0 1004.7 -1.7 85
2019-06-23 02:00:00 19.9 5 Este 11 Este 0 1005.4 -1.6 84
2019-06-23 01:00:00 20.1 8 Este 11 Este 0 1006 -0.7 82
2019-06-23 00:00:00 20.9 8 Este 11 Este 0 1006.4 -0.4 80
2019-06-22 23:00:00 22 4 Sudeste 8 Este 0 1007 0.2 73
2019-06-22 22:00:00 23.5 7 Este 24 Este 0 1006.7 0 66
2019-06-22 21:00:00 24.8 15 Este 28 Este 0 1006.8 0 60
2019-06-22 20:00:00 26.1 13 Este 24 Este 0 1006.8 -0.4 56
2019-06-22 19:00:00 26.8 12 Sudeste 28 Sudeste 0 1006.7 -1 53
2019-06-22 18:00:00 29.1 17 Este 33 Este 0 1006.8 -1.6 42
2019-06-22 17:00:00 28.9 14 Este 37 Nordeste 0 1007.2 -2.2 39
2019-06-22 16:00:00 28.5 17 Nordeste 35 Nordeste 0 1007.7 -2.4 44
2019-06-22 15:00:00 28.6 16 Este 37 Nordeste 0 1008.4 -2.7 42
2019-06-22 14:00:00 27.3 16 Este 32 Este 0 1009.4 -2.3 41
2019-06-22 13:00:00 25.5 16 Este 26 Sudeste 0 1010.1 -2.4 45
2019-06-22 12:00:00 23.4 18 Este 35 Este 0 1011.1 -1.7 47
2019-06-22 11:00:00 21.1 18 Este 26 Sudeste 0 1011.7 -1.6 54
2019-06-22 10:00:00 17.1 10 Sudeste 26 Sudeste 0 1012.5 -0.8 70
2019-06-22 09:00:00 15.2 14 Sudeste 21 Este 0 1012.8 -0.7 80
2019-06-22 08:00:00 12.2 5 Sudeste 13 Sudeste 0 1013.3 -1.1 91
2019-06-22 07:00:00 10.7 5 Sudeste 13 Sudeste 0 1013.3 -1.7 95
2019-06-22 06:00:00 10.7 9 Sudeste 15 Sudeste 0 1013.5 -2.2 96
2019-06-22 05:00:00 10.8 10 Sudeste 15 Sudeste 0 1014.4 -1.8 96
2019-06-22 04:00:00 10.8 8 Sudeste 13 Sudeste 0 1015 -1.6 96
2019-06-22 03:00:00 11.2 8 Este 11 Este 0 1015.7 -1.2 95
2019-06-22 02:00:00 11.4 6 Sudeste 11 Este 0 1016.2 -1.1 94
2019-06-22 01:00:00 12.3 3 Sudeste 13 Este 0 1016.6 -0.1 92
2019-06-22 00:00:00 13.1 9 Sudeste 15 Este 0 1016.9 0.4 89
2019-06-21 23:00:00 15 0 Calma 9 Norte 0 1017.3 1.3 82
2019-06-21 22:00:00 16.1 5 Noroeste 15 Norte 0 1016.7 0.8 75
2019-06-21 21:00:00 18.1 10 Norte 21 Norte 0 1016.5 0.4 64
2019-06-21 20:00:00 19 12 Norte 18 Noroeste 0 1016 -0.1 60
2019-06-21 19:00:00 19.5 12 Norte 24 Norte 0 1015.9 -0.5 58
2019-06-21 18:00:00 19.7 14 Norte 24 Norte 0 1016.1 -0.2 55
2019-06-21 17:00:00 19.4 12 Norte 26 Noroeste 0 1016.1 -0.6 61
2019-06-21 16:00:00 19.3 17 Noroeste 28 Noroeste 0 1016.4 -0.2 69
2019-06-21 15:00:00 19.2 10 Noroeste 26 Norte 0 1016.3 -0.4 67
2019-06-21 14:00:00 18.5 14 Noroeste 22 Noroeste 0 1016.7 0.3 70
2019-06-21 13:00:00 18.2 10 Noroeste 21 Noroeste 0 1016.6 0.5 75
2019-06-21 12:00:00 17.2 10 Noroeste 18 Noroeste 0 1016.7 0.9 80
2019-06-21 11:00:00 17.3 6 Norte 13 Norte 0 1016.4 1.1 77
2019-06-21 10:00:00 16.3 5 Oeste 11 Oeste 0 1016.1 1.3 84
2019-06-21 09:00:00 15.5 2 Noroeste 5 Noroeste 0 1015.8 1.6 94
2019-06-21 08:00:00 14.9 3 Este 9 Nordeste 0 1015.3 1.1 95
2019-06-21 07:00:00 14.7 0 Calma 9 Sudeste 1.3 1014.8 0.4 95
2019-06-21 06:00:00 15.3 4 Este 17 Norte 1.1 1014.2 -0.3 93
2019-06-21 05:00:00 15.7 5 Norte 11 Norte 0 1014.2 -0.4 91
2019-06-21 04:00:00 15.7 6 Norte 9 Norte 0.2 1014.4 -0.2 91
2019-06-21 03:00:00 16.4 4 Norte 11 Oeste 0 1014.5 0.2 83
2019-06-21 02:00:00 16.4 5 Noroeste 11 Nordeste 0 1014.6 0.5 83
2019-06-21 01:00:00 16.7 5 Norte 15 Norte 0 1014.6 0.9 85
2019-06-21 00:00:00 16.9 9 Norte 15 Nordeste 0 1014.3 0.8 85
2019-06-20 23:00:00 17 9 Norte 24 Norte 0 1014.1 0.8 86
2019-06-20 22:00:00 17.4 8 Norte 21 Norte 0 1013.7 1 82
2019-06-20 21:00:00 17.9 12 Norte 21 Norte 0 1013.5 0.7 79
2019-06-20 20:00:00 18.6 11 Norte 28 Nordeste 0 1013.3 0.6 76
2019-06-20 19:00:00 19.3 16 Nordeste 28 Nordeste 0 1012.7 -0.6 74
2019-06-20 18:00:00 19.7 12 Nordeste -- -- -- 1012.8 -0.5 73
2019-06-20 17:00:00 18.9 0 Calma 15 Norte 0 1012.7 -0.9 80
2019-06-20 16:00:00 18.1 9 Oeste 17 Oeste 0 1013.3 -0.6 84
2019-06-20 15:00:00 17.9 8 Oeste 13 Oeste 0 1013.3 -0.2 87
2019-06-20 14:00:00 17.2 5 Oeste 9 Oeste 0.1 1013.6 0.2 91
2019-06-20 13:00:00 17.3 3 Oeste 13 Oeste 0.2 1013.9 0.5 87
2019-06-20 12:00:00 17.9 7 Sur 13 Sudeste 0 1013.5 -0.1 84
2019-06-20 11:00:00 17.9 5 Noroeste 9 Norte 0 1013.4 0 84
2019-06-20 10:00:00 17 2 Noroeste 8 Noroeste 0 1013.4 0 88
2019-06-20 09:00:00 16.6 0 Calma 9 Norte 0 1013.6 0.6 90
2019-06-20 08:00:00 16 0 Calma 13 Norte 0 1013.4 0.5 93
2019-06-20 07:00:00 16.1 5 Noroeste 13 Noroeste 0.3 1013.4 0.4 96
2019-06-20 06:00:00 16.7 9 Noroeste 15 Noroeste 0 1013 -0.2 91
2019-06-20 05:00:00 16.7 8 Noroeste 13 Noroeste 0 1012.9 -0.6 92
2019-06-20 04:00:00 16.7 5 Noroeste 9 Noroeste 0 1013 -0.5 91
2019-06-20 03:00:00 16.8 0 Calma 9 Noroeste 0 1013.2 -0.3 90
2019-06-20 02:00:00 16.9 8 Noroeste 17 Noroeste 0 1013.5 0.3 89
2019-06-20 01:00:00 17.3 12 Noroeste 17 Noroeste 0 1013.5 0.9 90
2019-06-20 00:00:00 17.8 3 Noroeste 13 Norte 0 1013.5 1.5 80
2019-06-19 23:00:00 18 6 Norte 13 Norte 0 1013.2 1.8 79
2019-06-19 22:00:00 17.5 4 Noroeste 21 Noroeste 0 1012.6 1.6 87
2019-06-19 21:00:00 18.1 11 Noroeste 21 Noroeste 0 1012 1.5 86
2019-06-19 20:00:00 18.7 13 Noroeste 24 Noroeste 0 1011.4 0.9 81
2019-06-19 19:00:00 19.2 15 Noroeste 24 Noroeste 0 1011 0.9 81
2019-06-19 18:00:00 19.9 12 Noroeste 32 Noroeste 0 1010.5 0.3 80
2019-06-19 17:00:00 20.1 20 Noroeste 30 Oeste 0 1010.5 0.6 80
2019-06-19 16:00:00 21.1 18 Noroeste 28 Noroeste 0 1010.1 0.2 77
2019-06-19 15:00:00 20.2 16 Noroeste 28 Noroeste 0 1010.2 1 80
2019-06-19 14:00:00 19.8 23 Noroeste 32 Noroeste 0 1009.9 1.9 83
2019-06-19 13:00:00 20.1 22 Noroeste 33 Noroeste 0 1009.9 2.1 77
2019-06-19 12:00:00 21 26 Noroeste 39 Noroeste 0 1009.2 1.4 73
2019-06-19 11:00:00 21.5 12 Oeste 22 Oeste 0 1008 0.1 70
2019-06-19 10:00:00 23.9 3 Este 15 Este 0 1007.8 0 56
2019-06-19 09:00:00 19.1 7 Este 17 Nordeste 0 1007.8 0.2 76
2019-06-19 08:00:00 16.1 0 Calma -- -- 0 1007.9 0.5 87
2019-06-19 07:00:00 15.1 2 Noroeste 9 Oeste 0 1007.8 0.4 91
2019-06-19 06:00:00 15 4 Noroeste 9 Noroeste 0 1007.6 0.3 91
2019-06-19 05:00:00 15.3 3 Sudeste 13 Sudeste 0 1007.4 -0.1 91
2019-06-19 04:00:00 14.9 9 Sudeste 15 Sudeste 0 1007.4 -0.5 94
2019-06-19 03:00:00 14.4 6 Este 13 Este 0 1007.3 -0.6 95
2019-06-19 02:00:00 14.6 9 Este 11 Este 0 1007.5 -0.1 94
2019-06-19 01:00:00 15.3 0 Calma 9 Este 0 1007.9 0.9 93
2019-06-19 00:00:00 15.8 0 Calma 8 Oeste 0 1007.9 1.2 92
2019-06-18 23:00:00 16.5 3 Este 11 Nordeste 0 1007.6 1.3 88
2019-06-18 22:00:00 17.1 0 Calma 9 Noroeste 0 1007 1 85
2019-06-18 21:00:00 18.1 8 Oeste 26 Norte 0 1006.7 1.1 82
2019-06-18 20:00:00 18.2 19 Noroeste 28 Norte 0 1006.3 1.3 82
2019-06-18 19:00:00 18.3 14 Noroeste 33 Noroeste 0 1006 3.3 82
2019-06-18 18:00:00 18.9 20 Noroeste 46 Noroeste 0 1005.6 2.9 82
2019-06-18 17:00:00 21.2 27 Noroeste 55 Noroeste 0 1005 1.7 77
2019-06-18 16:00:00 32.9 27 Oeste 55 Noroeste 0 1002.7 -1 21
2019-06-18 15:00:00 34.8 17 Sudoeste 52 Sur 0 1002.7 -1.9 14
2019-06-18 14:00:00 33.9 14 Sur 35 Sur 0 1003.3 -1.8 19
2019-06-18 13:00:00 32.3 16 Sur 35 Sur 0 1003.7 -1.8 24
2019-06-18 12:00:00 29.7 8 Norte 26 Este 0 1004.6 -1.5 34
2019-06-18 11:00:00 26.3 9 Sudeste 15 Sudeste 0 1005.1 -1.2 48
2019-06-18 10:00:00 22.8 10 Sudeste 13 Sudeste 0 1005.5 -0.8 63
2019-06-18 09:00:00 19.6 4 Nordeste 13 Este 0 1006.1 -0.5 80
2019-06-18 08:00:00 16.9 0 Calma 11 Nordeste 0 1006.3 -0.6 88
2019-06-18 07:00:00 15 7 Este 11 Este 0 1006.3 -2 94
2019-06-18 06:00:00 15.2 5 Sudeste 11 Este 0 1006.6 -1.8 93
2019-06-18 05:00:00 15.4 4 Sudeste 13 Sudeste 0 1006.9 -2.6 94
2019-06-18 04:00:00 16.1 9 Este 21 Sudeste 0 1008.3 -1.5 91
2019-06-18 03:00:00 16.9 7 Nordeste 13 Este 0 1008.4 -2.1 89
2019-06-18 02:00:00 17 4 Sur 9 Sudeste 0 1009.5 -0.6 88
2019-06-18 01:00:00 17.5 9 Sur 30 Sudoeste 0 1009.8 -0.3 85
2019-06-18 00:00:00 17.4 7 Este 15 Nordeste 0 1010.5 0.4 85
2019-06-17 23:00:00 17.4 4 Norte 13 Norte 0 1010.1 0.4 84
2019-06-17 22:00:00 17.3 6 Noroeste 22 Norte 0 1010.1 0.6 85
2019-06-17 21:00:00 17.2 11 Noroeste 22 Noroeste 0 1010.1 1.3 85
2019-06-17 20:00:00 17.7 15 Noroeste 30 Noroeste 0 1009.7 1.2 86
2019-06-17 19:00:00 18.3 17 Noroeste 30 Noroeste 0 1009.5 0.9 85
2019-06-17 18:00:00 19.6 23 Noroeste 33 Oeste 0 1008.8 -0.2 82
2019-06-17 17:00:00 21.1 23 Noroeste 33 Oeste 0 1008.5 -1 76
2019-06-17 16:00:00 22.5 17 Oeste 28 Oeste 0 1008.6 -1.5 72
2019-06-17 15:00:00 22.6 19 Oeste 30 Noroeste 0 1009 -1.9 70
2019-06-17 14:00:00 23.8 17 Noroeste 26 Oeste 0 1009.5 -1.9 65
2019-06-17 13:00:00 25.2 16 Noroeste 22 Noroeste 0 1010.1 -1.8 60
2019-06-17 12:00:00 24.4 4 Nordeste 17 Este 0 1010.9 -1.7 58
2019-06-17 11:00:00 22 9 Este 18 Este 0 1011.4 -1.5 65
2019-06-17 10:00:00 19.8 8 Este 15 Este 0 1011.9 -1 73
2019-06-17 09:00:00 17.6 3 Sur 9 Este 0 1012.6 -0.4 80
2019-06-17 08:00:00 15.4 0 Calma 4 Noroeste 0 1012.9 -0.2 91
2019-06-17 07:00:00 14.6 0 Calma 4 Sur 0 1012.9 -0.6 93
2019-06-17 06:00:00 15.1 0 Calma 5 Oeste 0 1013 -1.2 92
2019-06-17 05:00:00 15.9 0 Calma 9 Sudoeste 0 1013.1 -1.4 88
2019-06-17 04:00:00 15.8 3 Sudeste 8 Sudeste 0 1013.5 -1.4 91
2019-06-17 03:00:00 15.4 3 Sudeste 8 Este 0 1014.2 -0.8 93
2019-06-17 02:00:00 14.9 4 Este 8 Este 0 1014.5 -0.4 92
2019-06-17 01:00:00 15.6 3 Oeste 13 Noroeste 0 1014.9 0.5 91
2019-06-17 00:00:00 15.9 6 Noroeste 17 Noroeste 0 1015 1.1 89
2019-06-16 23:00:00 16.6 11 Noroeste 24 Noroeste 0 1014.9 1.5 88
2019-06-16 22:00:00 16.9 18 Noroeste 32 Noroeste 0 1014.4 1.7 87
2019-06-16 21:00:00 18.2 22 Noroeste 33 Noroeste 0 1013.9 1.3 82
2019-06-16 20:00:00 20.1 23 Noroeste 32 Noroeste 0 1013.4 0.6 72
2019-06-16 19:00:00 22.3 19 Oeste 28 Oeste 0 1012.7 -0.3 65
2019-06-16 18:00:00 23.5 17 Oeste 30 Nordeste 0 1012.6 -1 60
2019-06-16 17:00:00 24.9 13 Norte 30 Nordeste 0 1012.8 -1.5 57
2019-06-16 16:00:00 24.8 11 Nordeste 24 Nordeste 0 1013 -2.2 56
2019-06-16 15:00:00 24.7 8 Norte 24 Norte 0 1013.6 -2.3 53
2019-06-16 14:00:00 23.6 6 Sudeste 22 Este 0 1014.3 -2.3 54
2019-06-16 13:00:00 22.8 9 Este 21 Este 0 1015.2 -2 54
2019-06-16 12:00:00 21.3 9 Sudeste 21 Sur 0 1015.9 -1.5 57
2019-06-16 11:00:00 19.3 9 Sudeste 21 Sudeste 0 1016.6 -0.8 63
2019-06-16 10:00:00 16.9 5 Sudeste 13 Este 0 1017.2 -0.1 68
2019-06-16 09:00:00 13.7 3 Sur 11 Este 0 1017.4 0.1 80
2019-06-16 08:00:00 11.5 7 Sudeste 11 Sudeste 0 1017.4 -0.1 87
2019-06-16 07:00:00 9.6 5 Sudeste 11 Sudeste 0 1017.3 -0.7 94
2019-06-16 06:00:00 9.7 4 Sudeste 9 Este 0 1017.3 -1.1 94
2019-06-16 05:00:00 9.9 6 Este 9 Este 0 1017.5 -1.3 94
2019-06-16 04:00:00 10.6 8 Este 11 Este 0 1018 -1.1 92
2019-06-16 03:00:00 11.1 3 Este -- -- -- 1018.4 -0.8 92
2019-06-16 02:00:00 11.3 5 Este 11 Este 0 1018.8 -0.4 91
2019-06-16 01:00:00 12.1 7 Este 11 Este 0 1019.1 0.5 88
2019-06-16 00:00:00 13.3 4 Sudeste 8 Sudeste 0 1019.2 0.6 84
2019-06-15 23:00:00 14 4 Sur 9 Norte 0 1019.2 1 82
2019-06-15 22:00:00 15.8 8 Norte 11 Norte 0 1018.6 0.9 73
2019-06-15 21:00:00 17 10 Norte 22 Norte 0 1018.6 1.2 66
2019-06-15 20:00:00 18.5 15 Norte 28 Nordeste 0 1018.2 1.2 59
2019-06-15 19:00:00 19.5 16 Norte 26 Norte 0 1017.7 0.9 54
2019-06-15 18:00:00 20 17 Norte 30 Norte 0 1017.4 0.6 50
2019-06-15 17:00:00 20.7 15 Norte 32 Norte 0 1017 0.3 45
2019-06-15 16:00:00 21.1 15 Norte 28 Norte 0 1016.8 0.1 45
2019-06-15 15:00:00 21 14 Norte 28 Norte 0 1016.8 0.3 44
2019-06-15 14:00:00 20.9 12 Norte 26 Nordeste 0 1016.7 0.3 44
2019-06-15 13:00:00 20 7 Norte 21 Norte 0 1016.7 0.4 48
2019-06-15 12:00:00 19.5 6 Oeste 17 Noroeste 0 1016.5 0.7 53
2019-06-15 11:00:00 18.1 4 Oeste 13 Nordeste 0 1016.4 1.2 61
2019-06-15 10:00:00 16.9 4 Nordeste 11 Este 0 1016.3 1.3 73
2019-06-15 09:00:00 14.4 6 Sudeste 15 Este 0 1015.8 1.1 88
2019-06-15 08:00:00 12 7 Sudeste 11 Este 0 1015.2 0.6 96
2019-06-15 07:00:00 10.8 6 Este 9 Este 0 1015 0.5 98
2019-06-15 06:00:00 10.8 4 Sudeste 11 Este 0 1014.7 0.4 97
2019-06-15 05:00:00 11.2 0 Calma 8 Este 0 1014.6 0.5 96
2019-06-15 04:00:00 11.6 5 Sudeste 8 Este 0 1014.5 0.6 96
2019-06-15 03:00:00 12.5 0 Calma -- -- -- 1014.3 0.7 95
2019-06-15 02:00:00 13.6 4 Este 8 Este 0 1014.1 1.2 92
2019-06-15 01:00:00 14.1 0 Calma 8 Norte 0 1013.9 2 89
2019-06-15 00:00:00 14.3 7 Noroeste 13 Noroeste 0 1013.6 2.1 89
2019-06-14 23:00:00 14.8 8 Noroeste 13 Norte 0 1012.9 2.1 87
2019-06-14 22:00:00 15 6 Noroeste 15 Noroeste 0 1011.9 1.6 85
2019-06-14 21:00:00 15.1 8 Noroeste 15 Noroeste 0 1011.5 1.4 83
2019-06-14 20:00:00 15 10 Noroeste 17 Norte 0 1010.8 1 87
2019-06-14 19:00:00 15 7 Noroeste 18 Noroeste 0 1010.3 0.6 89
2019-06-14 18:00:00 15.4 12 Norte 22 Norte 0 1010.1 0.6 88
2019-06-14 17:00:00 16.1 10 Norte 18 Norte 0 1009.8 0.3 80
2019-06-14 16:00:00 15.8 12 Norte 21 Norte 0 1009.7 0.4 80
2019-06-14 15:00:00 15.9 12 Norte 21 Nordeste 0 1009.5 0.2 80
2019-06-14 14:00:00 16 10 Norte 21 Nordeste 0 1009.5 0.3 79
2019-06-14 13:00:00 16.6 5 Norte 33 Nordeste 0 1009.3 0 72
2019-06-14 12:00:00 16.2 10 Este 28 Nordeste 0 1009.3 0 73
2019-06-14 11:00:00 16.4 12 Este 28 Norte 0 1009.2 -0.2 68
2019-06-14 10:00:00 16.3 9 Este 24 Este 0 1009.3 -0.2 72
2019-06-14 09:00:00 15 2 Sudeste 8 Norte 0 1009.3 0.1 83
2019-06-14 08:00:00 11.7 3 Sudeste 11 Nordeste 0 1009.4 0.4 94
2019-06-14 07:00:00 10.3 5 Sudeste 8 Sudeste 0 1009.5 -0.2 96
2019-06-14 06:00:00 10.8 0 Calma 8 Sudeste 0 1009.2 -0.9 96
2019-06-14 05:00:00 11.5 7 Este 9 Este 0 1009 -1.5 95
2019-06-14 04:00:00 12.5 5 Este 9 Este 0 1009.7 -1.2 94
2019-06-14 03:00:00 13.1 5 Este -- -- -- 1010.1 -0.9 91
2019-06-14 02:00:00 13.4 5 Este 8 Este 0 1010.5 -0.2 90
2019-06-14 01:00:00 13.6 4 Este 5 Este 0 1010.9 0.8 88
2019-06-14 00:00:00 14.3 0 Calma 11 Norte 0 1011 1.8 85
2019-06-13 23:00:00 14.2 4 Noroeste 13 Noroeste 0 1010.7 2.2 85
2019-06-13 22:00:00 14.2 9 Noroeste 28 Noroeste 0 1010.1 2.2 84
2019-06-13 21:00:00 15.1 12 Noroeste 21 Noroeste 0 1009.2 1.5 77
2019-06-13 20:00:00 15.5 15 Norte 22 Noroeste 0 1008.5 1.3 78
2019-06-13 19:00:00 16.1 10 Norte 26 Norte 0 1007.9 1.1 73
2019-06-13 18:00:00 16.2 13 Norte 24 Norte 0 1007.7 1 73
2019-06-13 17:00:00 16.7 13 Nordeste 32 Nordeste 0 1007.2 0.2 74
2019-06-13 16:00:00 17.7 17 Nordeste 26 Nordeste 0 1006.8 -0.6 70
2019-06-13 15:00:00 18.3 17 Nordeste 35 Nordeste 0 1006.7 -1.1 67
2019-06-13 14:00:00 18.5 11 Nordeste 24 Norte 0 1007 -1.2 67
2019-06-13 13:00:00 17.3 12 Noroeste 24 Norte 0 1007.4 -1 71
2019-06-13 12:00:00 18.1 5 Nordeste 17 Nordeste 0 1007.8 -0.9 61
2019-06-13 11:00:00 16.8 6 Nordeste 15 Este 0 1008.2 -0.4 65
2019-06-13 10:00:00 15.2 0 Calma 8 Norte 0 1008.4 -0.2 77
2019-06-13 09:00:00 12.2 6 Este 11 Este 0 1008.7 0 88
2019-06-13 08:00:00 10.2 7 Sudeste 15 Este 0 1008.6 0 94
2019-06-13 07:00:00 9.5 9 Este 11 Sudeste 0 1008.6 -0.2 96
2019-06-13 06:00:00 9.2 5 Sudeste 11 Sudeste 0 1008.7 -0.5 96
2019-06-13 05:00:00 9.5 6 Este 9 Este 0 1008.6 -1.3 96
2019-06-13 04:00:00 9.5 6 Sudeste 9 Sudeste 0 1008.8 -1.6 94
2019-06-13 03:00:00 10.3 4 Sur -- -- -- 1009.2 -1.7 94
2019-06-13 02:00:00 10.5 8 Sudeste 13 Sudeste 0 1009.9 -1.3 92
2019-06-13 01:00:00 11.3 9 Este 13 Este 0 1010.4 -0.3 91
2019-06-13 00:00:00 11.7 9 Este 13 Este 0 1010.9 0.2 89
2019-06-12 23:00:00 13 7 Este 15 Norte 0 1011.2 0.6 84
2019-06-12 22:00:00 14.2 6 Norte 13 Norte 0 1010.7 0.3 78
2019-06-12 21:00:00 14.8 8 Norte 24 Norte 0 1010.7 0.2 74
2019-06-12 20:00:00 16 9 Norte 24 Noroeste 0 1010.6 0.1 67
2019-06-12 19:00:00 16 13 Noroeste 35 Norte 0 1010.4 -0.3 61
2019-06-12 18:00:00 17.4 25 Norte 42 Norte 0 1010.5 -0.2 57
2019-06-12 17:00:00 17.6 23 Noroeste 39 Noroeste 0 1010.5 -0.4 59
2019-06-12 16:00:00 17.6 26 Noroeste 41 Noroeste 0 1010.7 -0.4 59
2019-06-12 15:00:00 18 23 Norte 39 Norte 0 1010.7 -0.5 56
2019-06-12 14:00:00 17.9 22 Noroeste 35 Noroeste 0 1010.9 0.1 54
2019-06-12 13:00:00 16.9 12 Noroeste 22 Noroeste 0 1011.1 0.4 50
2019-06-12 12:00:00 15.8 11 Noroeste 21 Noroeste 0 1011.2 0.6 53
2019-06-12 11:00:00 15.1 14 Noroeste 30 Noroeste 0 1010.8 0.7 53
2019-06-12 10:00:00 14.9 15 Oeste 30 Oeste 0 1010.7 0.7 50
2019-06-12 09:00:00 14 10 Sudoeste 21 Oeste 0 1010.6 0.8 55
2019-06-12 08:00:00 13.8 11 Oeste 26 Oeste 0 1010.1 0.3 55
2019-06-12 07:00:00 13.7 11 Oeste 32 Oeste 0 1010 -0.2 55
2019-06-12 06:00:00 13.6 14 Oeste 30 Oeste 0 1009.8 -1 56
2019-06-12 05:00:00 13.5 14 Oeste 26 Oeste 0 1009.8 -1.4 58
2019-06-12 04:00:00 13.6 13 Oeste 28 Oeste 0 1010.2 -1.2 57
2019-06-12 03:00:00 13.4 11 Oeste -- -- -- 1010.8 -1.1 60
2019-06-12 02:00:00 13.7 11 Oeste 30 Oeste 0 1011.2 -1.1 62
2019-06-12 01:00:00 13.8 16 Oeste 26 Oeste 0 1011.4 -0.9 66
2019-06-12 00:00:00 13.8 15 Oeste 28 Oeste 0 1011.9 -0.6 67
2019-06-11 23:00:00 13.9 15 Oeste 28 Oeste 0 1012.3 -0.1 71
2019-06-11 22:00:00 13.9 13 Oeste 35 Noroeste 0 1012.3 -0.2 69
2019-06-11 21:00:00 14.8 21 Oeste 46 Noroeste 0 1012.5 -0.2 64
2019-06-11 20:00:00 15 23 Noroeste 50 Noroeste 0 1012.4 -0.3 69
2019-06-11 19:00:00 16.3 33 Noroeste 50 Noroeste 0 1012.5 -0.3 66
2019-06-11 18:00:00 15.8 32 Noroeste 54 Noroeste 0 1012.7 -0.1 67
2019-06-11 17:00:00 15.6 35 Noroeste 58 Noroeste 0 1012.7 -0.3 70
2019-06-11 16:00:00 15.5 32 Noroeste 50 Noroeste 0 1012.8 -0.2 70
2019-06-11 15:00:00 15.8 27 Noroeste 45 Noroeste 0 1012.8 0.1 69
2019-06-11 14:00:00 14.9 23 Noroeste 37 Noroeste 0.2 1013 0.5 74
2019-06-11 13:00:00 12.8 12 Noroeste 42 Noroeste 0.6 1013 0.9 85
2019-06-11 12:00:00 14 24 Noroeste 39 Noroeste 0.4 1012.7 1 76
2019-06-11 11:00:00 12.5 22 Noroeste 37 Noroeste 1.3 1012.5 0.9 83
2019-06-11 10:00:00 12.4 16 Noroeste 24 Oeste 0.3 1012.1 0.6 84
2019-06-11 09:00:00 12.1 6 Oeste 21 Oeste 0 1011.7 0.3 85
2019-06-11 08:00:00 11.5 5 Oeste 13 Oeste 0 1011.6 -0.1 90
2019-06-11 07:00:00 11.1 6 Oeste 9 Noroeste 1 1011.5 -0.5 94
2019-06-11 06:00:00 11.1 5 Oeste 11 Oeste 0.4 1011.4 -1 93
2019-06-11 05:00:00 11.2 6 Oeste 11 Oeste 1 1011.7 -1.1 91
2019-06-11 04:00:00 11.1 4 Este 5 Este 0.1 1012 -1.4 94
2019-06-11 03:00:00 11.4 0 Calma -- -- -- 1012.4 -1 95
2019-06-11 02:00:00 11.7 8 Noroeste 13 Noroeste 0.3 1012.8 -1.1 91
2019-06-11 01:00:00 12.3 4 Sur 15 Oeste 1.2 1013.4 -0.2 89
2019-06-11 00:00:00 12.6 3 Oeste 9 Oeste 0.5 1013.4 -0.8 88
2019-06-10 23:00:00 13.1 0 Calma 5 Sudeste 0.2 1013.9 -0.3 87
2019-06-10 22:00:00 14.2 0 Calma 11 Noroeste 0 1013.6 -0.8 77
2019-06-10 21:00:00 14.5 7 Noroeste 18 Noroeste 0 1014.2 -0.4 74
2019-06-10 20:00:00 15.1 11 Norte 18 Noroeste 0 1014.2 -0.9 71
2019-06-10 19:00:00 15.3 9 Norte 18 Noroeste 0 1014.4 -0.9 67
2019-06-10 18:00:00 15.5 11 Noroeste 21 Norte 0 1014.6 -0.8 64
2019-06-10 17:00:00 15.8 13 Norte 24 Norte 0 1015.1 -0.6 67
2019-06-10 16:00:00 16 14 Norte 24 Noroeste 0 1015.3 -0.8 66
2019-06-10 15:00:00 17.2 12 Noroeste 24 Noroeste 0 1015.4 -1.1 53
2019-06-10 14:00:00 17.3 10 Noroeste 21 Noroeste 0 1015.7 -1.1 56
2019-06-10 13:00:00 16.2 7 Norte 18 Norte 0 1016.1 -0.8 70
2019-06-10 12:00:00 13.5 6 Sur -- -- 0.4 1016.5 -0.4 90
2019-06-10 11:00:00 12.7 4 Sur 11 Oeste 1.1 1016.8 0 90
2019-06-10 10:00:00 13.3 8 Oeste 13 Oeste 0 1016.9 0.4 86
2019-06-10 09:00:00 13.4 5 Sudeste 9 Sudeste 0 1016.9 0.7 89
2019-06-10 08:00:00 10.9 5 Este 11 Este 0 1016.8 0 98
2019-06-10 07:00:00 9.5 5 Sudeste 11 Este 0 1016.5 -0.4 99
2019-06-10 06:00:00 10 7 Este 11 Sudeste 0 1016.2 -1.4 98
2019-06-10 05:00:00 11.4 7 Este 9 Sudeste 0 1016.8 -1.2 97
2019-06-10 04:00:00 11.6 5 Este 8 Este 0 1016.9 -1.5 97
2019-06-10 03:00:00 12.2 3 Sudeste -- -- -- 1017.6 -0.9 96
2019-06-10 02:00:00 12.9 4 Oeste 8 Oeste 0 1018 0.2 95
2019-06-10 01:00:00 13.2 4 Noroeste 11 Noroeste 0 1018.4 1 96
2019-06-10 00:00:00 13.1 8 Noroeste 17 Noroeste 0.1 1018.5 1 97
2019-06-09 23:00:00 13.2 9 Noroeste 15 Noroeste 0.2 1017.8 1.2 97
2019-06-09 22:00:00 13.1 6 Oeste 13 Oeste 0 1017.4 1.4 96
2019-06-09 21:00:00 13.6 9 Oeste 18 Noroeste 0 1017.5 2.1 93
2019-06-09 20:00:00 13.6 10 Noroeste 26 Norte 0.2 1016.6 1.6 96
2019-06-09 19:00:00 13.9 16 Noroeste 28 Noroeste 0.4 1016 1 96
2019-06-09 18:00:00 15 14 Noroeste 24 Norte 0 1015.4 0.6 94
2019-06-09 17:00:00 15.5 13 Norte 30 Noroeste 0 1015 0.3 93
2019-06-09 16:00:00 15.1 23 Noroeste 37 Noroeste 0 1015 0.4 93
2019-06-09 15:00:00 16.6 19 Noroeste 32 Noroeste 0 1014.8 0.3 83
2019-06-09 14:00:00 16.2 20 Noroeste 32 Noroeste 0 1014.7 0.2 85
2019-06-09 13:00:00 15.6 15 Noroeste 22 Noroeste 0 1014.6 0.2 88
2019-06-09 12:00:00 15.9 9 Noroeste 17 Noroeste 0 1014.5 0.1 86
2019-06-09 11:00:00 15.5 10 Noroeste 15 Noroeste 0 1014.5 0.3 88
2019-06-09 10:00:00 15.5 9 Noroeste 17 Noroeste 0 1014.4 0.2 87
2019-06-09 09:00:00 15.1 11 Noroeste 18 Oeste 0 1014.4 0.1 86
2019-06-09 08:00:00 14.6 10 Oeste 15 Oeste 0 1014.2 -0.6 87
2019-06-09 07:00:00 14.6 10 Oeste 15 Noroeste 0 1014.2 -1.2 86
2019-06-09 06:00:00 14.5 7 Oeste 11 Oeste 0 1014.3 -1.8 85
2019-06-09 05:00:00 14.5 4 Oeste 11 Norte 0 1014.8 -1.8 85
2019-06-09 04:00:00 14.6 5 Noroeste 15 Noroeste 0 1015.4 -1.9 83
2019-06-09 03:00:00 14.8 12 Noroeste -- -- -- 1016.1 -1.6 80
2019-06-09 02:00:00 14.7 8 Noroeste 13 Noroeste 0 1016.6 -1.3 80
2019-06-09 01:00:00 14.8 8 Noroeste 13 Noroeste 0 1017.3 -0.2 78
2019-06-09 00:00:00 15.1 10 Noroeste 13 Norte 0 1017.7 0.4 77
2019-06-08 23:00:00 15.3 9 Norte 13 Norte 0 1017.9 0.6 75
2019-06-08 22:00:00 15.5 9 Norte 18 Nordeste 0 1017.5 0.5 74
2019-06-08 21:00:00 16 10 Nordeste 26 Nordeste 0 1017.3 0.5 71
2019-06-08 20:00:00 16.9 12 Nordeste 33 Nordeste 0 1017.3 0.4 65
2019-06-08 19:00:00 17.2 15 Nordeste 32 Nordeste 0 1017 -0.3 65
2019-06-08 18:00:00 18 17 Nordeste 35 Nordeste 0 1016.8 -1.1 60
2019-06-08 17:00:00 19.3 20 Este 39 Este 0 1016.9 -1.7 54
2019-06-08 16:00:00 20.2 22 Este 41 Este 0 1017.3 -2.1 51
2019-06-08 15:00:00 20 23 Este 41 Nordeste 0 1017.9 -2 52
2019-06-08 14:00:00 19.9 15 Este 37 Este 0 1018.6 -1.9 51
2019-06-08 13:00:00 19.1 14 Este 35 Nordeste 0 1019.4 -1.5 51
2019-06-08 12:00:00 18.3 14 Nordeste 33 Este 0 1019.9 -1.3 53
2019-06-08 11:00:00 17.6 8 Sudeste 17 Sudeste 0 1020.5 -0.6 56
2019-06-08 10:00:00 15 0 Calma 9 Este 0 1020.9 0 66
2019-06-08 09:00:00 12.7 7 Este 13 Este 0 1021.2 0.6 75
2019-06-08 08:00:00 10.4 5 Sudeste 9 Sudeste 0 1021.1 0.8 87
2019-06-08 07:00:00 9 6 Este 9 Este 0 1020.9 0.6 92
2019-06-08 06:00:00 9.2 5 Este 9 Este 0 1020.6 0.3 91
2019-06-08 05:00:00 9.8 8 Este 13 Este 0 1020.3 0 89
2019-06-08 04:00:00 11 8 Sudeste 11 Sudeste 0 1020.3 0.3 84
2019-06-08 03:00:00 12 7 Sudeste 11 Sudeste 0 1020.3 0.7 81
2019-06-08 02:00:00 12 8 Sudeste 15 Sudeste 0 1020.3 1.1 82
2019-06-08 01:00:00 12.1 5 Sudeste 8 Sudeste 0 1020 1.4 81
2019-06-08 00:00:00 13.4 0 Calma 17 Norte 0 1019.6 1.7 73
2019-06-07 23:00:00 14.6 9 Norte 21 Norte 0 1019.2 2 65
2019-06-07 22:00:00 15.1 10 Norte 21 Norte 0 1018.6 2.3 64
2019-06-07 21:00:00 15.6 11 Norte 30 Norte 0 1017.9 2.2 62
2019-06-07 20:00:00 16.1 17 Norte 35 Norte 0 1017.2 2.3 59
2019-06-07 19:00:00 17.2 22 Noroeste 46 Norte 0 1016.3 2.4 55
2019-06-07 18:00:00 17.1 23 Noroeste 45 Norte 0 1015.7 3 57
2019-06-07 17:00:00 16.6 29 Noroeste 54 Noroeste 0 1014.9 2.8 54
2019-06-07 16:00:00 18.1 33 Norte 54 Norte 0 1013.9 3.2 49
2019-06-07 15:00:00 18.8 39 Noroeste 55 Norte 0 1012.7 3.2 48
2019-06-07 14:00:00 18.4 37 Noroeste 52 Norte 0 1012.1 3.7 46
2019-06-07 13:00:00 19.4 27 Noroeste 41 Noroeste 0 1010.7 3.9 41
2019-06-07 12:00:00 18.8 15 Noroeste 28 Noroeste 0 1009.5 3.9 43
2019-06-07 11:00:00 17.8 16 Oeste 39 Sudoeste 0 1008.4 4.1 40
2019-06-07 10:00:00 17.7 27 Sudoeste 48 Oeste 0 1006.8 3.7 40
2019-06-07 09:00:00 16.8 32 Sudoeste 55 Sudoeste 0 1005.6 4.1 42
2019-06-07 08:00:00 16.3 32 Sudoeste 55 Sudoeste 0 1004.3 3.6 43
2019-06-07 07:00:00 15.8 31 Sudoeste 59 Sudoeste 0 1003.1 2.5 44
2019-06-07 06:00:00 16.1 37 Sudoeste 63 Sudoeste 0 1001.5 1.6 44
2019-06-07 05:00:00 16.4 31 Sudoeste 52 Sudoeste 0 1000.7 0.6 46
2019-06-07 04:00:00 16.5 29 Sudoeste 52 Sudoeste 0 1000.6 0.8 45
2019-06-07 03:00:00 17.4 22 Sudoeste 63 Sudoeste 0 999.9 3.1 40
2019-06-07 02:00:00 17.3 17 Sudoeste 67 Sudoeste 0 1000.1 3.1 45
2019-06-07 01:00:00 18.9 41 Oeste 68 Oeste 0 999.8 3.9 46
2019-06-07 00:00:00 22.7 22 Sudoeste 55 Sudoeste 0 996.8 1.8 38
2019-06-06 23:00:00 22.4 30 Oeste 63 Oeste 0 997 1.8 40
2019-06-06 22:00:00 26.2 25 Oeste 48 Sudoeste 0 995.9 0 24
2019-06-06 21:00:00 26.4 12 Sur 26 Sudoeste 0 995 -2.6 23
2019-06-06 20:00:00 25.1 10 Sur 24 Este 0 995.2 -4 34
2019-06-06 19:00:00 25.1 9 Sudeste 18 Este 0 995.9 -4.8 40
2019-06-06 18:00:00 25 13 Sudeste 39 Sudeste 0 997.6 -4.5 38
2019-06-06 17:00:00 24.7 19 Sudeste 45 Sur 0 999.2 -4.6 35
2019-06-06 16:00:00 25.1 18 Sudeste 39 Sudeste 0 1000.7 -4.4 35
2019-06-06 15:00:00 23.1 14 Sudeste 32 Oeste 0 1002.1 -4.5 36
2019-06-06 14:00:00 23.1 18 Sur 39 Sudoeste 0 1003.8 -3.8 35
2019-06-06 13:00:00 21.1 13 Este 35 Este 0 1005.1 -3.4 47
2019-06-06 12:00:00 19.2 12 Sudeste 24 Este 0 1006.6 -2.9 51
2019-06-06 11:00:00 17.4 14 Este 26 Este 0 1007.6 -2.6 53
2019-06-06 10:00:00 15.5 18 Este 26 Sudeste 0 1008.5 -1.8 63
2019-06-06 09:00:00 13 9 Sudeste 15 Sudeste 0 1009.5 -1 81
2019-06-06 08:00:00 11.2 0 Calma 11 Este 0 1010.2 -0.6 90
2019-06-06 07:00:00 10.2 4 Sudeste 11 Este 0 1010.3 -0.6 94
2019-06-06 06:00:00 10.7 8 Este 11 Este 0 1010.5 -0.8 94
2019-06-06 05:00:00 10.9 6 Sudeste 9 Sudeste 0 1010.8 -0.8 94
2019-06-06 04:00:00 11.3 0 Calma 8 Este 0 1010.9 -1.2 94
2019-06-06 03:00:00 11.2 4 Sudeste 9 Sudeste 0 1011.3 -0.6 93
2019-06-06 02:00:00 11.8 6 Sudeste 9 Este 0.2 1011.6 -0.2 91
2019-06-06 01:00:00 12.2 2 Sudeste 13 Este 0 1012.1 0.7 85
2019-06-06 00:00:00 12.3 9 Sudeste 11 Sudeste 0 1011.9 0.8 82
2019-06-05 23:00:00 13.4 3 Sudeste 15 Noroeste 0 1011.8 0.9 69
2019-06-05 22:00:00 14.1 10 Noroeste 22 Noroeste 0 1011.4 1 63
2019-06-05 21:00:00 14.7 8 Norte 21 Noroeste 0 1011.1 0.9 66
2019-06-05 20:00:00 15.1 14 Noroeste 33 Noroeste 0 1010.9 0.6 59
2019-06-05 19:00:00 16.8 22 Noroeste 39 Noroeste 0 1010.4 0.2 60
2019-06-05 18:00:00 16.1 27 Noroeste 41 Noroeste 0 1010.2 0.4 65
2019-06-05 17:00:00 17.4 27 Noroeste 46 Noroeste 0 1010.3 1 57
2019-06-05 16:00:00 16.9 32 Noroeste 50 Noroeste 0 1010.2 1.3 61
2019-06-05 15:00:00 15.7 36 Noroeste 54 Noroeste 0 1009.8 1.6 67
2019-06-05 14:00:00 15.9 31 Noroeste 50 Noroeste 0 1009.3 1.5 68
2019-06-05 13:00:00 15.5 28 Noroeste 39 Noroeste 0 1008.9 1.3 73
2019-06-05 12:00:00 14.5 20 Noroeste 32 Noroeste 0 1008.2 1 80
2019-06-05 11:00:00 13.2 0 Calma 13 Oeste 2.3 1007.8 0.8 95
2019-06-05 10:00:00 12.6 3 Noroeste 9 Oeste 0.6 1007.6 0.8 94
2019-06-05 09:00:00 12.3 0 Calma 11 Oeste 0.9 1007.2 0.7 94
2019-06-05 08:00:00 11.9 7 Oeste 15 Noroeste 0.4 1007 0 95
2019-06-05 07:00:00 12.2 4 Noroeste 11 Noroeste 0.3 1006.8 -0.5 95
2019-06-05 06:00:00 12 8 Noroeste 21 Noroeste 0.5 1006.5 -1 96
2019-06-05 05:00:00 12.7 9 Noroeste 21 Noroeste 0 1007 -1.1 94
2019-06-05 04:00:00 12.8 7 Oeste 17 Noroeste 0.2 1007.3 -0.9 93
2019-06-05 03:00:00 13.4 6 Noroeste 13 Noroeste 1.3 1007.5 -1.2 96
2019-06-05 02:00:00 13.6 0 Calma 2 Sur 0 1008.1 -0.6 96
2019-06-05 01:00:00 13.6 0 Calma 9 Oeste 1.3 1008.2 -0.2 95
2019-06-05 00:00:00 14 3 Sudeste 9 Sudeste 1 1008.7 0.4 95
2019-06-04 23:00:00 14.2 3 Sudeste 9 Este 0.4 1008.7 0.2 92
2019-06-04 22:00:00 14.3 4 Oeste 28 Noroeste 0 1008.4 0.3 93
2019-06-04 21:00:00 16.1 10 Noroeste 22 Norte 0 1008.3 0.6 74
2019-06-04 20:00:00 16.5 8 Norte 30 Noroeste 0 1008.5 1 72
2019-06-04 19:00:00 16.7 18 Noroeste 41 Noroeste 0 1008.1 1.9 68
2019-06-04 18:00:00 16.9 28 Noroeste 50 Noroeste 0 1007.7 2.2 67
2019-06-04 17:00:00 17.1 27 Noroeste 48 Noroeste 0 1007.5 2.4 79
2019-06-04 16:00:00 21.1 13 Norte 26 Norte 0 1006.2 1.4 71
2019-06-04 15:00:00 20.8 13 Noroeste 28 Norte 0 1005.5 1 72
2019-06-04 14:00:00 22 16 Noroeste 32 Noroeste 0 1005.1 1.3 64
2019-06-04 13:00:00 20.7 16 Norte 33 Norte 0 1004.8 0.7 71
2019-06-04 12:00:00 20.8 18 Noroeste 35 Norte 0 1004.5 0.3 75
2019-06-04 11:00:00 21.1 10 Noroeste 21 Oeste 0 1003.8 -0.3 73
2019-06-04 10:00:00 19.3 6 Noroeste 13 Noroeste 0 1004.1 -0.2 80
2019-06-04 09:00:00 17.4 3 Oeste 11 Oeste 0 1004.2 0.3 87
2019-06-04 08:00:00 16.6 0 Calma -- -- 0 1004.1 0.2 89
2019-06-04 07:00:00 14.7 4 Sudeste 17 Noroeste 0 1004.3 -0.2 95
2019-06-04 06:00:00 14.9 4 Nordeste 8 Este 0 1003.9 -1.8 93
2019-06-04 05:00:00 15.4 5 Este 8 Este 0 1003.9 -3.2 92
2019-06-04 04:00:00 16.1 4 Este 13 Sudeste 0 1004.5 -3.9 90
2019-06-04 03:00:00 16.5 9 Sudeste 13 Sudeste 0 1005.7 -3.5 89
2019-06-04 02:00:00 16.7 6 Sudeste 9 Este 0 1007.1 -2.7 89
2019-06-04 01:00:00 17.7 0 Calma 5 Sur 0 1008.4 -1.1 86
2019-06-04 00:00:00 17.6 2 Noroeste 11 Norte 0 1009.2 -0.1 88
2019-06-03 23:00:00 17.4 8 Noroeste 13 Noroeste 0 1009.8 0.5 89
2019-06-03 22:00:00 17.4 10 Noroeste 21 Oeste 0 1009.5 0.3 90
2019-06-03 21:00:00 18.5 14 Noroeste 24 Oeste 0 1009.3 -0.1 85
2019-06-03 20:00:00 20.1 20 Noroeste 28 Oeste 0 1009.3 -0.6 77
2019-06-03 19:00:00 21.4 18 Oeste 32 Noroeste 0 1009.2 -1.1 72
2019-06-03 18:00:00 21.9 21 Oeste 32 Noroeste 0 1009.4 -1.6 70
2019-06-03 17:00:00 22.8 18 Oeste 30 Oeste 0 1009.9 -1.6 66
2019-06-03 16:00:00 23.3 20 Oeste 28 Oeste 0 1010.3 -2 62
2019-06-03 15:00:00 23.8 17 Norte 28 Norte 0 1011 -1.6 57
2019-06-03 14:00:00 23.1 5 Norte 26 Norte 0 1011.5 -1.6 62
2019-06-03 13:00:00 23 10 Noroeste 22 Noroeste 0 1012.3 -1.2 62
2019-06-03 12:00:00 22.2 8 Nordeste 15 Nordeste 0 1012.6 -1.1 62
2019-06-03 11:00:00 20.3 2 Sudeste 13 Noroeste 0 1013.1 -0.2 69
2019-06-03 10:00:00 19.4 3 Norte 9 Norte 0 1013.5 0.6 73
2019-06-03 09:00:00 15.9 2 Oeste 13 Norte 0 1013.7 0.5 81
2019-06-03 08:00:00 14.8 9 Noroeste 13 Norte 0 1013.3 0.2 88
2019-06-03 07:00:00 14 9 Este 15 Este 0 1012.9 -0.4 90
2019-06-03 06:00:00 13.8 5 Sudeste 9 Sudeste 0 1013.2 -0.1 91
2019-06-03 05:00:00 14 7 Este 9 Este 0 1013.1 -0.7 91
2019-06-03 04:00:00 14.3 2 Este 8 Este 0 1013.3 -0.9 90
2019-06-03 03:00:00 14.8 3 Este 9 Este 0 1013.3 -1 88
2019-06-03 02:00:00 14.8 8 Este 11 Sudeste 0 1013.8 -0.5 88
2019-06-03 01:00:00 15.4 3 Sur 8 Este 0 1014.2 0.4 85
2019-06-03 00:00:00 15.6 5 Sudeste 5 Sudeste 0 1014.3 0.6 86
2019-06-02 23:00:00 16.5 3 Sudeste 9 Norte 0 1014.3 1 85
2019-06-02 22:00:00 17.6 0 Calma 13 Noroeste 0 1013.8 1.1 82
2019-06-02 21:00:00 18.4 9 Noroeste 18 Noroeste 0 1013.7 1 81
2019-06-02 20:00:00 20 15 Noroeste 28 Noroeste 0 1013.3 0.9 74
2019-06-02 19:00:00 22.4 17 Noroeste 26 Noroeste 0 1012.7 0.6 50
2019-06-02 18:00:00 22.9 13 Noroeste 21 Oeste 0 1012.7 0.8 47
2019-06-02 17:00:00 22.7 15 Noroeste 28 Noroeste 0 1012.4 0.9 49
2019-06-02 16:00:00 22.6 15 Oeste 35 Noroeste 0 1012.1 1 57
2019-06-02 15:00:00 24.1 22 Noroeste 33 Noroeste 0 1011.9 0.6 49
2019-06-02 14:00:00 25.2 24 Noroeste 32 Noroeste 0 1011.5 0 49
2019-06-02 13:00:00 26.5 20 Oeste 30 Oeste 0 1011.1 -0.7 51
2019-06-02 12:00:00 28.4 5 Nordeste 13 Este 0 1011.3 -0.6 43
2019-06-02 11:00:00 26.6 9 Este 15 Este 0 1011.5 -1 48
2019-06-02 10:00:00 22.8 8 Sudeste 21 Este 0 1011.8 -0.7 62
2019-06-02 09:00:00 19.5 5 Este 9 Este 0 1011.9 -0.4 72
2019-06-02 08:00:00 16.8 6 Este 11 Este 0 1012.5 0 81
2019-06-02 07:00:00 14.9 7 Este 11 Sudeste 0 1012.5 -0.4 87
2019-06-02 06:00:00 15 5 Este 9 Este 0 1012.3 -0.6 86
2019-06-02 05:00:00 14.8 7 Este 13 Este 0 1012.5 -0.4 87
2019-06-02 04:00:00 15.3 9 Este 13 Este 0 1012.9 0 84
2019-06-02 03:00:00 15.8 7 Este 9 Este 0 1012.9 -0.3 80
2019-06-02 02:00:00 16.7 4 Sudeste 9 Sudeste 0 1012.9 -0.1 76
2019-06-02 01:00:00 17.2 7 Este 11 Este 0 1012.9 0.5 75
2019-06-02 00:00:00 18.4 7 Este 11 Este 0 1013.2 1.2 69
2019-06-01 23:00:00 19.7 2 Sudeste 11 Sudoeste 0 1013 1.4 67
2019-06-01 22:00:00 21.5 8 Oeste 17 Oeste 0 1012.4 1.3 56
2019-06-01 21:00:00 23.4 10 Oeste 24 Noroeste 0 1012 0.9 52
2019-06-01 20:00:00 24.6 17 Oeste 28 Noroeste 0 1011.6 0.3 53
2019-06-01 19:00:00 26 17 Noroeste 26 Noroeste 0 1011.1 -0.3 55
2019-06-01 18:00:00 28.4 22 Noroeste 28 Noroeste 0 1011.1 -0.8 49
2019-06-01 17:00:00 29.9 17 Oeste 26 Oeste 0 1011.3 -1.2 44
2019-06-01 16:00:00 34.1 5 Este 18 Este 0 1011.4 -1.7 30
2019-06-01 15:00:00 33.1 5 Nordeste 18 Este 0 1011.9 -1.6 30
2019-06-01 14:00:00 32.3 5 Sur 22 Sudoeste 0 1012.5 -1 35
2019-06-01 13:00:00 31 8 Sur 24 Sur 0 1013.1 -0.5 36
2019-06-01 12:00:00 29.3 14 Sur 26 Sur 0 1013.5 -0.3 37
2019-06-01 11:00:00 27.9 9 Sudeste 22 Sudeste 0 1013.5 -0.6 45
2019-06-01 10:00:00 25.8 15 Sudeste 22 Este 0 1013.6 -0.4 48
2019-06-01 09:00:00 20.6 2 Noroeste 9 Noroeste 0 1013.8 -0.1 73
2019-06-01 08:00:00 17.9 3 Este 13 Nordeste 0 1014.1 -0.1 82
2019-06-01 07:00:00 15.4 3 Nordeste 8 Nordeste 0 1014 -0.3 92
2019-06-01 06:00:00 15.8 4 Nordeste 15 Este 0 1013.9 -0.8 91
2019-06-01 05:00:00 15.7 9 Este 13 Este 0 1014.2 -0.8 91
2019-06-01 04:00:00 15.6 5 Este 13 Este 0 1014.3 -1.2 91
2019-06-01 03:00:00 16.3 9 Este 11 Este 0 1014.7 -1.1 87
2019-06-01 02:00:00 16.7 8 Este 9 Este 0 1015 -0.6 85
2019-06-01 01:00:00 17.5 7 Este 9 Este 0 1015.5 0.4 83
2019-06-01 00:00:00 18.8 6 Este 8 Sudeste 0 1015.8 0.7 78
2019-05-31 23:00:00 20.4 6 Este 15 Nordeste 0 1015.6 0.3 71
2019-05-31 22:00:00 22.8 9 Este 24 Este 0 1015.1 -0.3 62
2019-05-31 21:00:00 25.8 12 Este 30 Sudeste 0 1015.1 -0.5 51
2019-05-31 20:00:00 26.6 15 Este 30 Sudeste 0 1015.3 -0.7 49
2019-05-31 19:00:00 27.8 14 Este 26 Este 0 1015.4 -0.9 46
2019-05-31 18:00:00 28.7 15 Este 39 Nordeste 0 1015.6 -1.1 43
2019-05-31 17:00:00 29.5 18 Nordeste 41 Nordeste 0 1016 -1.2 39
2019-05-31 16:00:00 29.9 19 Este 35 Nordeste 0 1016.3 -1.4 40
2019-05-31 15:00:00 29.4 10 Este 24 Este 0 1016.7 -1.3 46
2019-05-31 14:00:00 28.4 9 Este 21 Nordeste 0 1017.2 -1.1 48
2019-05-31 13:00:00 27.2 9 Este 17 Sudeste 0 1017.7 -1.2 50
2019-05-31 12:00:00 26 10 Este 17 Sudeste 0 1018 -1.1 53
2019-05-31 11:00:00 23.9 9 Este 13 Este 0 1018.3 -1 60
2019-05-31 10:00:00 20.5 8 Este 15 Este 0 1018.9 -0.5 69
2019-05-31 09:00:00 17.3 10 Sudeste 15 Este 0 1019.1 -0.3 79
2019-05-31 08:00:00 14.3 5 Este 17 Este 0 1019.3 -0.4 89
2019-05-31 07:00:00 12.6 4 Este 9 Este 0 1019.4 -0.5 95
2019-05-31 06:00:00 12.7 6 Este 8 Este 0 1019.4 -1.1 94
2019-05-31 05:00:00 12.8 5 Este 8 Este 0 1019.7 -1.2 93
2019-05-31 04:00:00 13.2 5 Este 9 Este 0 1019.9 -1.5 92
2019-05-31 03:00:00 13.8 5 Este -- -- 0 1020.5 -1.1 91
2019-05-31 02:00:00 14.6 4 Este 9 Sudeste 0 1020.9 -0.3 87
2019-05-31 01:00:00 15.3 5 Sudeste 8 Sudeste 0 1021.4 0.9 86
2019-05-31 00:00:00 16.5 5 Sudeste 8 Este 0 1021.6 1.3 80
2019-05-30 23:00:00 18.1 4 Sur 11 Este 0 1021.2 0.8 73
2019-05-30 22:00:00 19.6 6 Este 22 Este 0 1020.5 0.2 65
2019-05-30 21:00:00 21.5 17 Este 39 Este 0 1020.3 0 58
2019-05-30 20:00:00 22.9 15 Este 32 Este 0 1020.4 0.1 51
2019-05-30 19:00:00 24.5 16 Nordeste 28 Este 0 1020.3 -0.4 41
2019-05-30 18:00:00 25.4 16 Nordeste 24 Norte 0 1020.3 -0.6 44
2019-05-30 17:00:00 26.1 14 Nordeste 28 Nordeste 0 1020.3 -1 45
2019-05-30 16:00:00 26 14 Nordeste 28 Nordeste 0 1020.7 -1 44
2019-05-30 15:00:00 25.9 9 Nordeste 24 Nordeste 0 1020.9 -1.3 47
2019-05-30 14:00:00 24.7 7 Sur 18 Este 0 1021.3 -1.2 46
2019-05-30 13:00:00 23.7 10 Este 18 Nordeste 0 1021.7 -1.2 47
2019-05-30 12:00:00 21.9 5 Nordeste 22 Este 0 1022.2 -0.9 48
2019-05-30 11:00:00 20 7 Sudeste 17 Sudeste 0 1022.5 -0.3 60
2019-05-30 10:00:00 16.7 10 Sudeste 21 Sudeste 0 1022.9 0.2 70
2019-05-30 09:00:00 13.8 10 Sudeste 17 Sur 0 1023.1 0.6 81
2019-05-30 08:00:00 11.1 12 Sudeste 18 Sudeste 0 1022.8 0.3 90
2019-05-30 07:00:00 9 9 Sudeste 13 Sudeste 0 1022.7 -0.1 95
2019-05-30 06:00:00 9.2 5 Sudeste 11 Este 0 1022.5 -0.4 95
2019-05-30 05:00:00 9.6 6 Este 13 Sudeste 0 1022.5 -0.9 95
2019-05-30 04:00:00 10 6 Sudeste 9 Sudeste 0 1022.8 -0.8 94
2019-05-30 03:00:00 10.4 7 Este 9 Este 0 1022.9 -0.8 93
2019-05-30 02:00:00 11 5 Este 9 Este 0 1023.4 -0.1 92
2019-05-30 01:00:00 11.4 6 Este 11 Este 0 1023.6 0.7 91
2019-05-30 00:00:00 12.2 8 Este 11 Este 0 1023.7 1 86
2019-05-29 23:00:00 14.1 0 Calma 8 Oeste 0 1023.5 0.8 78
2019-05-29 22:00:00 15.3 5 Norte 11 Norte 0 1022.9 0.4 70
2019-05-29 21:00:00 17.9 6 Noroeste 15 Norte 0 1022.7 0.1 60
2019-05-29 20:00:00 18.5 12 Norte 18 Norte 0 1022.7 0 56
2019-05-29 19:00:00 19.1 10 Norte 24 Norte 0 1022.5 -0.2 57
2019-05-29 18:00:00 19.3 13 Norte 26 Noroeste 0 1022.6 -0.3 55
2019-05-29 17:00:00 19.5 14 Noroeste 28 Norte 0 1022.7 -0.3 56
2019-05-29 16:00:00 19.6 13 Noroeste 26 Noroeste 0 1022.7 -0.4 56
2019-05-29 15:00:00 19.3 14 Noroeste 26 Noroeste 0 1022.9 -0.1 54
2019-05-29 14:00:00 18.7 13 Noroeste 22 Norte 0 1023 0.2 59
2019-05-29 13:00:00 18.2 10 Noroeste 21 Noroeste 0 1023.1 0.4 63
2019-05-29 12:00:00 16.9 8 Norte 15 Norte 0 1023 0.7 73
2019-05-29 11:00:00 15.6 7 Norte 21 Norte 0 1022.8 1.3 75
2019-05-29 10:00:00 14.9 10 Norte 17 Norte 0 1022.7 1.6 81
2019-05-29 09:00:00 14 7 Noroeste 11 Noroeste 0 1022.3 1.5 94
2019-05-29 08:00:00 13.3 8 Noroeste 13 Norte 0 1021.5 0.9 96
2019-05-29 07:00:00 12.7 8 Noroeste 18 Noroeste 0.2 1021.1 0.5 97
2019-05-29 06:00:00 12.2 8 Oeste 17 Oeste 1.8 1020.8 0.2 96
2019-05-29 05:00:00 12.7 9 Noroeste 18 Noroeste 0.4 1020.6 -0.2 93
2019-05-29 04:00:00 13.2 10 Oeste 21 Oeste 0.3 1020.6 -0.1 88
2019-05-29 03:00:00 13.6 10 Oeste 17 Oeste 0 1020.6 0 86
2019-05-29 02:00:00 13.3 8 Noroeste 22 Noroeste 0.3 1020.8 0.3 92
2019-05-29 01:00:00 13.8 12 Noroeste 28 Noroeste 0.1 1020.7 0.7 87
2019-05-29 00:00:00 14.2 13 Noroeste 32 Noroeste 0 1020.6 0.9 82
2019-05-28 23:00:00 14.3 17 Noroeste 30 Noroeste 0 1020.5 1 81
2019-05-28 22:00:00 14.2 13 Noroeste 33 Noroeste 0 1020 0.7 80
2019-05-28 21:00:00 14.8 18 Noroeste 37 Noroeste 0 1019.7 0.7 75
2019-05-28 20:00:00 15.7 23 Noroeste 46 Noroeste 0 1019.5 1 70
2019-05-28 19:00:00 15.6 30 Noroeste 45 Noroeste 0 1019.3 0.8 76
2019-05-28 18:00:00 16.3 30 Norte 48 Norte 0 1019 0.8 70
2019-05-28 17:00:00 16.3 28 Noroeste 46 Noroeste 0 1018.5 0.6 70
2019-05-28 16:00:00 15.3 23 Norte 46 Noroeste 0 1018.5 0.9 80
2019-05-28 15:00:00 16.6 30 Noroeste 45 Noroeste 0 1018.2 0.9 72
2019-05-28 14:00:00 15.2 23 Noroeste 48 Noroeste 0.2 1017.9 1 75
2019-05-28 13:00:00 15.2 31 Noroeste 46 Noroeste 0 1017.6 0.7 80
2019-05-28 12:00:00 15.8 27 Noroeste 42 Noroeste 0 1017.3 0.6 78
2019-05-28 11:00:00 15 23 Noroeste 33 Noroeste 0 1016.9 0.7 82
2019-05-28 10:00:00 14.3 19 Noroeste 35 Noroeste 0 1016.9 1.2 88
2019-05-28 09:00:00 12.5 23 Noroeste 41 Noroeste 0.8 1016.7 1.3 93
2019-05-28 08:00:00 13 6 Oeste 13 Oeste 0 1016.2 0.9 87
2019-05-28 07:00:00 12.3 5 Noroeste 13 Noroeste 0 1015.7 0.3 91
2019-05-28 06:00:00 12.1 3 Norte 9 Oeste 0 1015.4 -0.2 96
2019-05-28 05:00:00 12.3 3 Norte 13 Sudoeste 0 1015.3 -0.5 95
2019-05-28 04:00:00 12.3 0 Calma 8 Oeste 0 1015.4 -0.8 93
2019-05-28 03:00:00 12.6 4 Norte 8 Nordeste 0.2 1015.6 -0.6 91
2019-05-28 02:00:00 12.5 5 Oeste 13 Noroeste 0 1015.8 -0.2 89
2019-05-28 01:00:00 12.6 11 Noroeste 18 Noroeste 0 1016.2 0.7 88
2019-05-28 00:00:00 13.4 13 Noroeste 21 Noroeste 0 1016.2 0.8 88